KLQK

Pickens County Airport

Pickens, South Carolina, USA
METAR KLQK 181955Z AUTO 02004KT 10SM CLR 13/10 A3009 RMK AO2 T01300103
Observed Flight Rules
Dec-18 @ 19:55 UTC (18 minutes ago) Visual Flight Rules
Wind Visibility Clouds
20° at 4 knots 10 miles
  • Clear skies
Temperatures Readings
Current 13°C / 55°F
Dewpoint 10°C / 50°F
Humidity 82%
Altimeter 30.09" Hg
Pressure 1019 hPa
Elevation 309
METAR KLQK 181955Z AUTO 02004KT 10SM CLR 13/10 A3009 RMK AO2 T01300103
Observed Flight Rules
Dec-18 @ 19:55 UTC
(18 minutes ago)
VFR
Wind Visibility
20° at 4 knots 10 miles
Clouds
  • Clear skies
Temperature Dewpoint
13°C / 55°F 10°C / 50°F
Humidity Altimeter Pressure
82% 30.09" Hg 1019 hPa